PILOTS ONLINE: 652    ATC ONLINE: 132

Location

City Altus
Country  United States
Latitude 34° 40' 1" N
Longitude 99° 16' 0" W
Elevation 1382 ft
Type Large Airport

Weather

METAR
2014/07/12 11:58
KLTS 121158Z AUTO 14002KT 10SM CLR 20/17 A3013 RMK AO2 SLP188 T02030172 10268 20203 53007 $
TAF
2014/07/12 07:40
TAF 
      AMD KLTS 1207/1307 16009KT 9999 SKC QNH3004INS 
      BECMG 1214/1215 20012G18KT 9999 SKC QNH3006INS 
      BECMG 1220/1221 21015G22KT 9999 FEW080 QNH3002INS 
      BECMG 1222/1223 19012KT 9999 FEW080 QNH3003INS TX35/1222Z TN22/1211Z 
      AMD 120724 LAST NO 
      AMDS AFT 1207 NEXT 1413

Runways

17/35 3501 ft / 94 ft
174/354 3501 ft / 94 ft
17L/35R 9000 ft / 150 ft
17R/35L 13440 ft / 150 ft

Outbound flights

Inbound flights


Spotted incorrect airport information? Please login with your VATSIM ID.